Time;durP1;ratioP1;P1;durP2;ratioP2;P2;SDS_P1;SDS_P2;PMS_P1;PMS_P2;Temp;Humidity;BMP_temperature;BMP_pressure;BME280_temperature;BME280_humidity;BME280_pressure;Samples;Min_cycle;Max_cycle;Signal;HPM_P1;HPM_P2
2022/08/02 00:01:46;;;;;;;11.07;4.00;;;12.20;99.90;;;;;;5050448;28;20478;-78
2022/08/02 00:04:12;;;;;;;11.73;4.05;;;12.20;99.90;;;;;;5051817;28;20067;-81
2022/08/02 00:06:38;;;;;;;10.10;3.85;;;12.20;99.90;;;;;;5035423;28;20485;-80
2022/08/02 00:09:05;;;;;;;10.50;4.40;;;12.10;99.90;;;;;;5056268;28;20047;-79
2022/08/02 00:11:31;;;;;;;9.63;3.80;;;12.10;99.90;;;;;;5039398;28;20045;-80
2022/08/02 00:13:57;;;;;;;6.90;3.95;;;12.10;99.90;;;;;;5055800;28;20478;-79
2022/08/02 00:16:23;;;;;;;8.77;3.45;;;12.20;99.90;;;;;;5038972;28;20041;-79
2022/08/02 00:18:48;;;;;;;9.10;3.83;;;12.20;99.90;;;;;;5039014;28;20045;-79
2022/08/02 00:21:15;;;;;;;13.80;4.65;;;12.20;99.90;;;;;;5055455;28;20045;-78
2022/08/02 00:23:41;;;;;;;7.75;3.85;;;12.20;99.90;;;;;;5038977;28;20119;-78
2022/08/02 00:26:07;;;;;;;7.70;3.90;;;12.10;99.90;;;;;;5056943;28;20041;-79
2022/08/02 00:28:32;;;;;;;10.52;4.68;;;12.10;99.90;;;;;;5056833;28;20060;-78
2022/08/02 00:30:58;;;;;;;13.93;4.20;;;12.10;99.90;;;;;;5055039;28;20475;-78
2022/08/02 00:33:25;;;;;;;11.18;4.32;;;12.10;99.90;;;;;;5055262;28;20087;-77
2022/08/02 00:35:51;;;;;;;10.95;4.10;;;12.10;99.90;;;;;;5055337;28;20037;-80
2022/08/02 00:38:17;;;;;;;7.40;3.80;;;12.10;99.90;;;;;;5055432;28;20045;-79
2022/08/02 00:40:53;;;;;;;7.70;4.25;;;12.10;99.90;;;;;;5056814;28;20045;-79
2022/08/02 00:43:18;;;;;;;15.05;4.75;;;12.10;99.90;;;;;;5056923;28;20048;-79
2022/08/02 00:45:44;;;;;;;8.00;4.32;;;12.10;99.90;;;;;;5055192;28;20037;-80
2022/08/02 00:48:11;;;;;;;10.82;4.10;;;12.00;99.90;;;;;;5055553;28;20048;-79
2022/08/02 00:50:38;;;;;;;9.88;4.10;;;11.90;99.90;;;;;;5056296;28;20500;-80
2022/08/02 00:53:05;;;;;;;8.48;4.05;;;11.90;99.90;;;;;;5055393;28;20392;-79
2022/08/02 00:55:31;;;;;;;13.25;4.72;;;11.80;99.90;;;;;;5054844;28;20128;-79
2022/08/02 00:57:57;;;;;;;9.32;4.10;;;11.80;99.90;;;;;;5038590;28;20073;-79
2022/08/02 01:00:24;;;;;;;15.95;4.90;;;11.80;99.90;;;;;;5054558;28;20076;-78
2022/08/02 01:02:50;;;;;;;14.93;5.13;;;11.80;99.90;;;;;;5054811;28;20047;-80
2022/08/02 01:05:16;;;;;;;11.50;4.55;;;11.80;99.90;;;;;;5054808;28;20053;-81
2022/08/02 01:07:42;;;;;;;10.00;4.88;;;11.70;99.90;;;;;;5054604;28;20045;-78
2022/08/02 01:10:09;;;;;;;9.75;4.60;;;11.70;99.90;;;;;;5055144;28;20094;-79
2022/08/02 01:12:36;;;;;;;13.02;4.40;;;11.70;99.90;;;;;;5055844;28;20033;-77
2022/08/02 01:15:07;;;;;;;11.60;4.63;;;11.70;99.90;;;;;;5054379;28;20041;-78
2022/08/02 01:17:33;;;;;;;13.00;5.18;;;11.70;99.90;;;;;;5054078;28;20045;-77
2022/08/02 01:20:07;;;;;;;13.60;5.65;;;11.70;99.90;;;;;;5052990;28;20041;-78
2022/08/02 01:22:53;;;;;;;8.68;4.40;;;11.70;99.90;;;;;;5054374;28;20076;-79
2022/08/02 01:25:46;;;;;;;12.48;4.70;;;11.70;99.90;;;;;;5054013;28;20110;-77
2022/08/02 01:28:39;;;;;;;11.88;4.55;;;11.70;99.90;;;;;;5046450;28;20408;-78
2022/08/02 01:31:28;;;;;;;6.85;4.25;;;11.70;99.90;;;;;;5053062;28;20516;-76
2022/08/02 01:34:15;;;;;;;12.35;4.45;;;11.70;99.90;;;;;;5053708;28;20040;-76
2022/08/02 01:36:45;;;;;;;13.73;4.93;;;11.70;99.90;;;;;;5053500;28;20469;-77
2022/08/02 01:39:14;;;;;;;13.02;5.18;;;11.70;99.90;;;;;;5053954;28;20060;-77
2022/08/02 01:41:42;;;;;;;11.15;4.93;;;11.70;99.90;;;;;;5054741;28;20524;-77
2022/08/02 01:44:11;;;;;;;13.73;5.22;;;11.60;99.90;;;;;;5054958;28;20087;-76
2022/08/02 01:46:39;;;;;;;10.32;4.72;;;11.60;99.90;;;;;;5053288;28;20037;-75
2022/08/02 01:49:13;;;;;;;11.10;4.93;;;11.60;99.90;;;;;;5053643;28;20041;-76
2022/08/02 01:54:32;;;;;;;11.68;4.57;;;11.60;99.90;;;;;;5054810;28;20053;-77
2022/08/02 01:57:00;;;;;;;10.48;4.30;;;11.60;99.90;;;;;;5053301;28;20083;-75
2022/08/02 01:59:29;;;;;;;10.35;5.03;;;11.60;99.90;;;;;;5053278;28;20414;-73
2022/08/02 02:01:56;;;;;;;8.15;4.65;;;11.60;99.90;;;;;;5052335;28;20073;-76
2022/08/02 02:04:23;;;;;;;10.25;4.90;;;11.60;99.90;;;;;;5054136;28;20573;-75
2022/08/02 02:06:51;;;;;;;9.93;4.53;;;11.70;99.90;;;;;;5053187;28;20041;-75
2022/08/02 02:09:18;;;;;;;10.70;4.43;;;11.70;99.90;;;;;;5053090;28;20072;-74
2022/08/02 02:11:45;;;;;;;12.05;4.25;;;11.70;99.90;;;;;;5052786;28;20037;-74
2022/08/02 02:14:12;;;;;;;10.40;4.38;;;11.70;99.90;;;;;;5054051;28;20457;-77
2022/08/02 02:16:43;;;;;;;12.25;4.53;;;11.70;99.90;;;;;;5052790;28;20048;-75
2022/08/02 02:19:11;;;;;;;16.58;4.65;;;11.70;99.90;;;;;;5052742;28;20494;-76
2022/08/02 02:21:37;;;;;;;8.73;4.22;;;11.70;99.90;;;;;;5053956;28;20073;-74
2022/08/02 02:24:04;;;;;;;8.63;4.43;;;11.70;99.90;;;;;;5052747;28;20086;-76
2022/08/02 02:26:31;;;;;;;6.82;4.30;;;11.70;99.90;;;;;;5053588;28;20045;-74
2022/08/02 02:29:03;;;;;;;10.07;5.35;;;11.70;99.90;;;;;;5071300;28;20068;-74
2022/08/02 02:31:35;;;;;;;9.73;4.53;;;11.70;99.90;;;;;;5069996;28;20032;-75
2022/08/02 02:34:09;;;;;;;11.48;4.93;;;11.70;99.90;;;;;;5072506;28;20047;-75
2022/08/02 02:36:40;;;;;;;9.02;5.00;;;11.70;99.90;;;;;;5072310;28;20573;-74
2022/08/02 02:39:09;;;;;;;14.85;5.95;;;11.70;99.90;;;;;;5072382;28;20043;-73
2022/08/02 02:41:37;;;;;;;14.33;5.60;;;11.70;99.90;;;;;;5073532;28;20504;-73
2022/08/02 02:44:05;;;;;;;11.88;5.07;;;11.70;99.90;;;;;;5073812;28;20044;-73
2022/08/02 02:46:32;;;;;;;10.23;5.00;;;11.70;99.90;;;;;;5072280;28;20044;-73
2022/08/02 02:49:00;;;;;;;11.15;4.63;;;11.70;99.90;;;;;;5055555;28;20032;-74
2022/08/02 02:51:27;;;;;;;12.98;5.30;;;11.70;99.90;;;;;;5072407;28;20040;-73
2022/08/02 02:53:54;;;;;;;8.85;4.75;;;11.70;99.90;;;;;;5072226;28;20036;-72
2022/08/02 02:56:21;;;;;;;12.50;5.57;;;11.70;99.90;;;;;;5055477;28;20119;-73
2022/08/02 02:58:47;;;;;;;8.38;4.38;;;11.70;99.90;;;;;;5073133;28;20488;-72
2022/08/02 03:01:32;;;;;;;11.18;4.97;;;11.70;99.90;;;;;;5053246;28;20039;-74
2022/08/02 03:04:05;;;;;;;7.35;4.80;;;11.60;99.90;;;;;;5071810;28;20380;-74
2022/08/02 03:06:31;;;;;;;14.60;5.47;;;11.70;99.90;;;;;;5055346;28;20044;-73
2022/08/02 03:08:59;;;;;;;12.48;4.85;;;11.70;99.90;;;;;;5072016;28;20499;-73
2022/08/02 03:11:28;;;;;;;10.43;4.75;;;11.70;99.90;;;;;;5071853;28;20054;-72
2022/08/02 03:14:04;;;;;;;9.40;4.55;;;11.70;99.90;;;;;;5073110;28;20124;-72
2022/08/02 03:16:30;;;;;;;12.25;4.55;;;11.70;99.90;;;;;;5055113;28;20086;-74
2022/08/02 03:19:00;;;;;;;10.48;4.50;;;11.70;99.90;;;;;;5071782;28;20040;-72
2022/08/02 03:21:26;;;;;;;9.38;4.75;;;11.70;99.90;;;;;;5073039;28;20041;-73
2022/08/02 03:23:52;;;;;;;7.45;4.38;;;11.70;99.90;;;;;;5054919;28;20047;-72
2022/08/02 03:26:18;;;;;;;10.07;4.80;;;11.70;99.90;;;;;;5055123;28;20079;-72
2022/08/02 03:28:44;;;;;;;9.65;4.72;;;11.80;99.90;;;;;;5057017;28;20516;-74
2022/08/02 03:31:10;;;;;;;7.50;4.82;;;11.80;99.90;;;;;;5049386;28;20397;-73
2022/08/02 03:33:36;;;;;;;10.63;5.05;;;11.80;99.90;;;;;;5050769;28;20041;-74
2022/08/02 03:36:12;;;;;;;11.07;5.57;;;11.80;99.90;;;;;;5050617;28;20044;-73
2022/08/02 03:38:39;;;;;;;13.20;5.78;;;11.80;99.90;;;;;;5051723;28;20497;-75
2022/08/02 03:41:06;;;;;;;8.13;5.47;;;11.80;99.90;;;;;;5050267;28;20056;-72
2022/08/02 03:43:32;;;;;;;7.00;5.13;;;11.80;99.90;;;;;;5050083;28;20132;-73
2022/08/02 03:46:00;;;;;;;11.75;5.25;;;11.90;99.90;;;;;;5034016;28;20071;-72
2022/08/02 03:48:28;;;;;;;18.17;5.55;;;11.90;99.90;;;;;;5051759;28;20131;-72
2022/08/02 03:50:55;;;;;;;10.25;5.80;;;11.90;99.90;;;;;;5050770;28;20420;-72
2022/08/02 03:53:22;;;;;;;13.77;5.30;;;11.90;99.90;;;;;;5050586;28;20175;-72
2022/08/02 03:55:49;;;;;;;11.18;5.22;;;11.90;99.90;;;;;;5050422;28;20124;-72
2022/08/02 03:58:22;;;;;;;9.63;5.97;;;11.90;99.90;;;;;;5050371;28;20049;-71
2022/08/02 04:00:49;;;;;;;12.80;5.68;;;11.90;99.90;;;;;;5049339;28;20056;-71
2022/08/02 04:03:15;;;;;;;9.63;6.20;;;11.90;99.90;;;;;;5033985;28;20047;-71
2022/08/02 04:05:41;;;;;;;12.63;6.38;;;11.90;99.90;;;;;;5033556;28;20417;-74
2022/08/02 04:08:07;;;;;;;14.40;5.70;;;11.90;99.90;;;;;;5051473;28;20120;-73
2022/08/02 04:11:29;;;;;;;13.40;6.03;;;11.90;99.90;;;;;;5051631;28;20037;-74
2022/08/02 04:13:21;;;;;;;12.50;6.03;;;11.90;99.90;;;;;;5051344;28;20049;-74
2022/08/02 04:15:52;;;;;;;14.32;6.97;;;11.90;99.90;;;;;;5033903;28;20063;-73
2022/08/02 04:18:24;;;;;;;14.27;5.95;;;11.90;99.90;;;;;;5050085;28;20128;-75
2022/08/02 04:20:52;;;;;;;11.60;5.35;;;11.90;99.90;;;;;;5051420;28;20048;-72
2022/08/02 04:23:18;;;;;;;12.85;6.05;;;11.90;99.90;;;;;;5051313;28;20039;-71
2022/08/02 04:25:45;;;;;;;14.02;5.50;;;11.90;99.90;;;;;;5050034;28;20098;-72
2022/08/02 04:28:15;;;;;;;12.00;5.72;;;12.00;99.90;;;;;;5061239;28;20041;-73
2022/08/02 04:30:41;;;;;;;13.05;5.10;;;12.00;99.90;;;;;;5050938;28;20113;-72
2022/08/02 04:33:07;;;;;;;11.00;5.80;;;12.00;99.90;;;;;;5070064;28;20494;-74
2022/08/02 04:35:33;;;;;;;12.15;5.43;;;12.00;99.90;;;;;;5069997;28;20041;-73
2022/08/02 04:38:00;;;;;;;12.38;6.20;;;12.00;99.90;;;;;;5069822;28;20072;-73
2022/08/02 04:40:26;;;;;;;11.68;5.13;;;12.00;99.90;;;;;;5070375;28;20075;-74
2022/08/02 04:42:51;;;;;;;11.48;5.53;;;12.00;99.90;;;;;;5069873;28;20045;-75
2022/08/02 04:45:18;;;;;;;14.32;5.80;;;12.10;99.90;;;;;;5071712;28;20090;-72
2022/08/02 04:47:44;;;;;;;11.60;5.68;;;12.10;99.90;;;;;;5053853;28;20132;-73
2022/08/02 04:50:10;;;;;;;10.52;5.38;;;12.20;99.90;;;;;;5072222;28;20452;-78
2022/08/02 04:52:35;;;;;;;16.45;5.65;;;12.20;99.90;;;;;;5071137;28;20032;-82
2022/08/02 04:55:02;;;;;;;10.52;5.45;;;12.30;99.90;;;;;;5074644;28;20102;-75
2022/08/02 05:00:12;;;;;;;9.25;4.95;;;12.50;99.90;;;;;;5074524;28;20037;-74
2022/08/02 05:02:38;;;;;;;10.80;4.97;;;12.50;99.90;;;;;;5055657;28;20127;-74
2022/08/02 05:05:04;;;;;;;8.32;5.00;;;12.60;99.90;;;;;;5074327;28;20135;-76
2022/08/02 05:07:30;;;;;;;11.05;5.03;;;12.60;99.90;;;;;;5057777;28;20378;-77
2022/08/02 05:09:56;;;;;;;12.93;5.30;;;12.70;99.90;;;;;;5073718;28;20043;-78
2022/08/02 05:12:23;;;;;;;12.77;5.57;;;12.80;99.90;;;;;;5073556;28;20040;-76
2022/08/02 05:14:49;;;;;;;8.60;5.05;;;12.90;99.90;;;;;;5074359;28;20102;-76
2022/08/02 05:17:15;;;;;;;8.48;4.82;;;13.00;99.90;;;;;;5074543;28;20060;-78
2022/08/02 05:19:40;;;;;;;9.93;5.25;;;13.10;99.90;;;;;;5073172;28;20492;-88
2022/08/02 05:22:06;;;;;;;10.77;5.05;;;13.20;99.90;;;;;;5073340;28;20059;-76
2022/08/02 05:24:32;;;;;;;9.88;4.57;;;13.40;99.90;;;;;;5073002;28;20040;-77
2022/08/02 05:26:58;;;;;;;9.15;4.10;;;13.50;99.90;;;;;;5071750;28;20041;-78
2022/08/02 05:29:24;;;;;;;9.55;4.80;;;13.60;99.90;;;;;;5052942;28;20094;-82
2022/08/02 05:31:50;;;;;;;10.30;4.97;;;13.80;99.90;;;;;;5050636;28;20037;-81
2022/08/02 05:34:16;;;;;;;11.50;4.40;;;13.90;99.90;;;;;;5035995;28;20078;-81
2022/08/02 05:36:42;;;;;;;9.45;4.72;;;14.00;99.90;;;;;;5053890;28;20055;-75
2022/08/02 05:39:08;;;;;;;10.73;4.15;;;14.10;99.90;;;;;;5052683;28;20041;-77
2022/08/02 05:41:34;;;;;;;12.98;4.80;;;14.20;99.90;;;;;;5055177;28;20062;-73
2022/08/02 05:44:00;;;;;;;10.48;4.40;;;14.30;99.90;;;;;;5052696;28;20474;-75
2022/08/02 05:46:26;;;;;;;9.00;4.50;;;14.40;99.90;;;;;;5052818;28;20041;-74
2022/08/02 05:48:52;;;;;;;9.40;4.78;;;14.50;99.90;;;;;;5052446;28;20409;-78
2022/08/02 05:51:36;;;;;;;13.27;4.70;;;14.60;99.90;;;;;;5052780;28;20041;-77
2022/08/02 05:54:27;;;;;;;13.63;5.78;;;14.60;99.90;;;;;;5041643;28;20040;-76
2022/08/02 05:57:13;;;;;;;9.60;4.45;;;14.70;99.90;;;;;;5054839;28;20036;-76
2022/08/02 06:00:09;;;;;;;8.82;4.55;;;14.90;99.90;;;;;;5053067;28;20078;-82
2022/08/02 06:03:01;;;;;;;7.30;4.13;;;15.10;99.90;;;;;;5034321;28;20401;-77
2022/08/02 06:05:33;;;;;;;9.95;4.47;;;15.20;99.90;;;;;;5017291;28;20100;-84
2022/08/02 06:07:59;;;;;;;12.07;4.40;;;15.30;99.90;;;;;;5054856;28;20045;-80
2022/08/02 06:10:27;;;;;;;11.38;4.43;;;15.40;99.90;;;;;;5036163;28;20102;-78
2022/08/02 06:13:10;;;;;;;11.20;4.97;;;15.50;99.90;;;;;;5052305;28;20508;-77
2022/08/02 06:15:37;;;;;;;7.15;3.50;;;15.70;99.90;;;;;;5036504;28;20059;-79
2022/08/02 06:18:05;;;;;;;10.68;4.05;;;15.80;99.90;;;;;;5053704;28;20037;-78
2022/08/02 06:20:34;;;;;;;8.23;4.28;;;15.90;99.90;;;;;;5053888;28;20171;-81
2022/08/02 06:23:07;;;;;;;7.03;3.45;;;16.00;99.90;;;;;;5051865;28;20041;-72
2022/08/02 06:25:36;;;;;;;6.85;4.00;;;16.10;99.90;;;;;;5051753;28;20490;-76
2022/08/02 06:28:05;;;;;;;7.25;3.70;;;16.30;99.90;;;;;;5061535;28;20174;-74
2022/08/02 06:30:32;;;;;;;7.72;3.50;;;16.30;99.90;;;;;;5069297;28;20132;-75
2022/08/02 06:32:58;;;;;;;7.82;3.58;;;16.40;99.90;;;;;;5070742;28;20045;-78
2022/08/02 06:35:48;;;;;;;8.98;3.72;;;16.60;99.90;;;;;;5072361;28;20146;-78
2022/08/02 06:38:21;;;;;;;7.78;3.78;;;16.80;99.90;;;;;;5061898;28;20532;-75
2022/08/02 06:41:03;;;;;;;9.43;3.70;;;16.90;99.90;;;;;;5072462;28;20044;-79
2022/08/02 06:44:06;;;;;;;11.50;4.50;;;17.00;99.90;;;;;;5073847;28;20045;-75
2022/08/02 06:46:32;;;;;;;7.60;3.35;;;17.30;99.90;;;;;;5071206;28;20508;-74
2022/08/02 06:48:59;;;;;;;9.65;2.80;;;17.50;99.90;;;;;;5073323;28;20493;-76
2022/08/02 06:51:25;;;;;;;6.10;2.53;;;17.70;99.90;;;;;;5072325;28;20043;-79
2022/08/02 06:53:53;;;;;;;8.00;3.10;;;17.80;99.90;;;;;;5071931;28;20040;-78
2022/08/02 06:56:19;;;;;;;8.70;3.42;;;18.10;99.90;;;;;;5073920;28;20055;-81
2022/08/02 06:58:46;;;;;;;6.18;2.70;;;18.30;99.90;;;;;;5072338;28;20141;-76
2022/08/02 07:01:12;;;;;;;5.75;2.38;;;18.50;99.90;;;;;;5070054;28;20036;-71
2022/08/02 07:03:39;;;;;;;6.53;3.03;;;18.60;99.90;;;;;;5073484;28;20048;-82
2022/08/02 07:06:09;;;;;;;5.85;3.00;;;18.60;99.90;;;;;;5054921;28;20134;-83
2022/08/02 07:08:37;;;;;;;;;;;18.50;99.90;;;;;;5055496;28;20048;-80
2022/08/02 07:11:04;;;;;;;7.43;2.40;;;18.40;99.90;;;;;;5071977;28;19916;-75
2022/08/02 07:13:30;;;;;;;7.60;2.83;;;18.50;99.90;;;;;;5071958;28;20063;-76
2022/08/02 07:15:56;;;;;;;5.18;2.50;;;18.70;99.90;;;;;;5070918;28;20492;-80
2022/08/02 07:18:23;;;;;;;8.18;2.60;;;18.90;99.90;;;;;;5072300;28;20519;-77
2022/08/02 07:20:49;;;;;;;5.88;3.28;;;19.20;99.90;;;;;;5072355;28;20067;-74
2022/08/02 07:23:16;;;;;;;5.93;2.50;;;19.30;99.90;;;;;;5071023;28;20076;-77
2022/08/02 07:25:43;;;;;;;5.00;2.35;;;19.40;99.90;;;;;;5054114;28;20425;-72
2022/08/02 07:28:09;;;;;;;7.70;2.92;;;19.50;99.90;;;;;;5053232;28;20505;-79
2022/08/02 07:30:36;;;;;;;6.03;2.42;;;19.70;99.90;;;;;;5051339;28;20417;-79
2022/08/02 07:33:04;;;;;;;7.97;2.65;;;19.90;99.90;;;;;;5053708;28;20079;-79
2022/08/02 07:35:30;;;;;;;11.00;3.38;;;20.00;99.90;;;;;;5051989;28;20079;-80
2022/08/02 07:37:55;;;;;;;6.03;2.25;;;20.20;99.90;;;;;;5052272;28;20080;-76
2022/08/02 07:40:23;;;;;;;5.18;2.63;;;20.30;99.90;;;;;;5053381;28;20530;-73
2022/08/02 07:42:51;;;;;;;9.15;2.25;;;20.40;99.90;;;;;;5052181;28;20470;-75
2022/08/02 07:45:20;;;;;;;4.90;2.08;;;20.50;99.90;;;;;;5051979;28;20120;-78
2022/08/02 07:47:46;;;;;;;3.50;2.08;;;20.70;99.90;;;;;;5051746;28;20057;-77
2022/08/02 07:50:16;;;;;;;8.20;2.05;;;20.90;99.90;;;;;;5035351;28;20128;-73
2022/08/02 07:52:43;;;;;;;7.72;2.17;;;21.00;99.90;;;;;;5053494;28;20079;-77
2022/08/02 07:55:10;;;;;;;5.75;2.47;;;21.10;99.90;;;;;;5053035;28;20370;-77
2022/08/02 07:57:37;;;;;;;6.70;2.40;;;21.20;99.90;;;;;;5051555;28;20041;-79
2022/08/02 08:00:07;;;;;;;5.97;1.75;;;21.20;99.90;;;;;;5051590;28;20696;-76
2022/08/02 08:02:33;;;;;;;5.75;2.08;;;21.40;99.90;;;;;;5049247;28;20091;-77
2022/08/02 08:04:59;;;;;;;4.50;1.73;;;21.60;99.90;;;;;;5035054;28;20052;-74
2022/08/02 08:07:25;;;;;;;4.80;1.85;;;21.80;99.90;;;;;;5051378;28;20704;-83
2022/08/02 08:09:51;;;;;;;5.40;2.00;;;22.00;99.90;;;;;;5034849;28;20501;-81
2022/08/02 08:12:17;;;;;;;5.45;2.60;;;22.10;99.90;;;;;;5052465;28;20115;-73
2022/08/02 08:14:43;;;;;;;5.15;2.30;;;22.00;99.90;;;;;;5052703;28;20072;-75
2022/08/02 08:17:09;;;;;;;5.40;2.03;;;22.00;99.90;;;;;;5052416;28;20033;-72
2022/08/02 08:19:35;;;;;;;5.05;2.60;;;22.00;99.90;;;;;;5067155;28;20075;-73
2022/08/02 08:22:02;;;;;;;5.15;2.42;;;22.00;99.90;;;;;;5053444;28;20090;-72
2022/08/02 08:24:28;;;;;;;6.97;2.38;;;22.10;99.90;;;;;;5070457;28;20464;-77
2022/08/02 08:26:55;;;;;;;5.00;2.40;;;22.30;99.90;;;;;;5071113;28;20080;-73
2022/08/02 08:29:21;;;;;;;6.65;2.63;;;22.40;99.90;;;;;;5073119;28;20374;-73
2022/08/02 08:31:47;;;;;;;5.63;2.60;;;22.60;99.90;;;;;;5054774;28;20127;-77
2022/08/02 08:34:13;;;;;;;6.60;2.97;;;22.70;99.90;;;;;;5057334;28;20032;-72
2022/08/02 08:36:40;;;;;;;5.50;2.33;;;22.90;99.90;;;;;;5074976;28;20040;-70
2022/08/02 08:39:06;;;;;;;5.07;2.47;;;23.00;99.90;;;;;;5075054;28;20404;-81
2022/08/02 08:41:32;;;;;;;7.00;2.40;;;23.20;99.90;;;;;;5074956;28;20040;-75
2022/08/02 08:43:58;;;;;;;6.95;2.58;;;23.20;99.90;;;;;;5074891;28;20273;-75
2022/08/02 08:46:30;;;;;;;8.35;2.90;;;23.20;99.90;;;;;;5073460;28;20513;-75
2022/08/02 08:49:01;;;;;;;5.13;2.72;;;23.40;99.90;;;;;;5073862;28;20122;-75
2022/08/02 08:51:34;;;;;;;6.85;2.65;;;23.60;99.90;;;;;;5073293;28;20084;-75
2022/08/02 08:54:02;;;;;;;7.15;2.55;;;23.70;99.90;;;;;;5073890;28;20052;-78
2022/08/02 08:56:32;;;;;;;5.47;2.50;;;23.90;99.90;;;;;;5073175;28;20044;-76
2022/08/02 08:58:58;;;;;;;8.75;3.28;;;24.00;99.90;;;;;;5057800;28;20438;-78
2022/08/02 09:01:24;;;;;;;7.15;3.33;;;24.00;99.90;;;;;;5072443;28;20473;-77
2022/08/02 09:03:50;;;;;;;4.38;2.67;;;24.10;99.90;;;;;;5074368;28;20044;-77
2022/08/02 09:06:16;;;;;;;8.68;2.88;;;24.20;99.90;;;;;;5075324;28;20110;-75
2022/08/02 09:08:42;;;;;;;5.20;3.00;;;24.30;99.90;;;;;;5074354;28;20109;-75
2022/08/02 09:11:14;;;;;;;7.97;2.55;;;24.40;99.90;;;;;;5074454;28;20067;-74
2022/08/02 09:13:55;;;;;;;9.52;3.15;;;24.50;99.90;;;;;;5056425;28;20565;-74
2022/08/02 09:16:36;;;;;;;6.95;2.65;;;24.50;99.90;;;;;;5074241;28;20502;-81
2022/08/02 09:19:22;;;;;;;4.85;2.80;;;24.50;99.90;;;;;;5072986;28;20041;-76
2022/08/02 09:22:06;;;;;;;8.43;3.05;;;24.80;99.90;;;;;;5074102;28;20032;-78
2022/08/02 09:24:44;;;;;;;8.48;2.92;;;25.00;99.90;;;;;;5074460;28;20435;-77
2022/08/02 09:27:12;;;;;;;7.18;3.47;;;25.20;99.90;;;;;;5071069;28;20053;-69
2022/08/02 09:29:38;;;;;;;6.68;3.08;;;25.40;99.90;;;;;;5036230;28;20079;-75
2022/08/02 09:32:04;;;;;;;7.97;3.30;;;25.50;99.90;;;;;;5050214;28;20076;-73
2022/08/02 09:34:50;;;;;;;7.35;3.67;;;25.60;99.90;;;;;;5053832;28;20460;-72
2022/08/02 09:37:30;;;;;;;5.57;3.47;;;25.50;99.70;;;;;;5052543;28;20044;-68
2022/08/02 09:39:59;;;;;;;;;;;25.40;99.90;;;;;;5053186;28;20492;-67
2022/08/02 09:42:25;;;;;;;5.88;2.97;;;25.30;99.90;;;;;;5053871;28;19923;-72
2022/08/02 09:44:54;;;;;;;6.68;3.45;;;25.30;99.90;;;;;;5053757;28;20401;-78
2022/08/02 09:47:20;;;;;;;9.50;3.70;;;25.10;99.90;;;;;;5035751;28;20052;-73
2022/08/02 09:49:47;;;;;;;7.47;3.50;;;25.10;99.90;;;;;;5052636;28;20041;-78
2022/08/02 09:52:13;;;;;;;5.93;3.42;;;25.10;99.90;;;;;;5052290;28;20041;-72
2022/08/02 09:54:40;;;;;;;5.55;3.80;;;25.20;99.90;;;;;;5035812;28;20084;-76
2022/08/02 09:57:06;;;;;;;5.75;3.40;;;25.50;99.90;;;;;;5053415;28;20398;-72
2022/08/02 09:59:32;;;;;;;6.90;3.28;;;25.70;99.90;;;;;;5052285;28;20049;-77
2022/08/02 10:01:59;;;;;;;8.00;3.67;;;26.00;99.90;;;;;;5051359;28;20082;-75
2022/08/02 10:04:31;;;;;;;5.25;3.75;;;26.20;99.90;;;;;;5052110;28;20064;-74
2022/08/02 10:06:58;;;;;;;6.70;4.30;;;26.50;99.90;;;;;;5051982;28;20138;-72
2022/08/02 10:09:24;;;;;;;7.60;3.95;;;26.60;99.90;;;;;;5052133;28;20037;-76
2022/08/02 10:11:51;;;;;;;7.15;3.83;;;26.80;99.90;;;;;;5053056;28;20037;-76
2022/08/02 10:14:19;;;;;;;5.10;3.83;;;27.00;98.90;;;;;;5035405;28;20048;-79
2022/08/02 10:16:45;;;;;;;7.25;3.92;;;27.00;97.90;;;;;;5052187;28;20134;-77
2022/08/02 10:19:10;;;;;;;5.95;4.07;;;27.10;97.90;;;;;;5064390;28;20068;-76
2022/08/02 10:21:49;;;;;;;5.28;4.03;;;27.00;97.00;;;;;;5071712;28;20040;-76
2022/08/02 10:24:22;;;;;;;5.03;3.92;;;27.00;98.90;;;;;;5071729;28;20072;-70
2022/08/02 10:26:48;;;;;;;5.55;3.70;;;27.20;99.00;;;;;;5071717;28;20037;-73
2022/08/02 10:29:16;;;;;;;8.07;4.63;;;27.30;98.10;;;;;;5035149;28;20059;-75
2022/08/02 10:31:54;;;;;;;5.45;3.67;;;27.10;97.40;;;;;;5050699;28;20517;-74
2022/08/02 10:34:23;;;;;;;4.20;3.60;;;27.20;99.30;;;;;;5034853;28;20051;-72
2022/08/02 10:36:50;;;;;;;7.88;4.50;;;27.40;99.80;;;;;;5051624;28;20044;-74
2022/08/02 10:39:16;;;;;;;7.07;4.63;;;27.60;99.90;;;;;;5051619;28;20113;-72
2022/08/02 10:41:47;;;;;;;6.95;5.60;;;27.80;99.50;;;;;;5051811;28;20499;-74
2022/08/02 10:44:21;;;;;;;7.88;5.35;;;27.80;97.20;;;;;;5051310;28;20501;-72
2022/08/02 10:46:47;;;;;;;8.48;5.85;;;27.60;97.80;;;;;;5051547;28;20036;-73
2022/08/02 10:49:14;;;;;;;8.40;6.03;;;27.40;99.30;;;;;;5052364;28;20033;-72
2022/08/02 10:52:01;;;;;;;6.97;5.95;;;27.30;99.90;;;;;;5050939;28;20041;-71
2022/08/02 10:54:37;;;;;;;10.80;7.53;;;27.40;99.80;;;;;;5034450;28;20039;-72
2022/08/02 10:57:19;;;;;;;10.45;6.45;;;27.60;99.90;;;;;;5052365;28;20541;-70
2022/08/02 10:59:45;;;;;;;9.07;6.70;;;27.70;99.90;;;;;;5051152;28;20049;-71
2022/08/02 11:02:12;;;;;;;9.68;6.63;;;27.80;99.90;;;;;;5049162;28;20464;-75
2022/08/02 11:04:41;;;;;;;7.65;6.35;;;27.80;99.20;;;;;;5034199;28;20064;-69
2022/08/02 11:07:10;;;;;;;11.38;7.75;;;27.70;98.30;;;;;;5052323;28;20044;-72
2022/08/02 11:09:37;;;;;;;11.60;6.43;;;27.50;97.90;;;;;;5051091;28;20040;-72
2022/08/02 11:12:16;;;;;;;11.23;6.80;;;27.30;98.10;;;;;;5052290;28;20037;-71
2022/08/02 11:14:44;;;;;;;9.00;6.82;;;27.20;99.30;;;;;;5052515;28;20116;-74
2022/08/02 11:17:15;;;;;;;10.18;6.28;;;27.30;99.60;;;;;;5051624;28;20033;-72
2022/08/02 11:20:09;;;;;;;7.45;6.10;;;27.40;99.30;;;;;;5068928;28;20516;-69
2022/08/02 11:22:36;;;;;;;10.40;6.95;;;27.40;99.30;;;;;;5070795;28;20067;-68
2022/08/02 11:25:23;;;;;;;9.00;5.28;;;27.30;98.70;;;;;;5071785;28;20083;-72
2022/08/02 11:27:56;;;;;;;9.73;6.20;;;27.40;99.30;;;;;;5062541;28;20037;-69
2022/08/02 11:30:22;;;;;;;7.90;5.93;;;27.40;99.40;;;;;;5034046;28;20043;-69
2022/08/02 11:32:49;;;;;;;9.18;6.18;;;27.30;99.20;;;;;;5048395;28;20120;-69
2022/08/02 11:35:15;;;;;;;9.45;7.40;;;27.20;99.90;;;;;;5033915;28;20485;-69
2022/08/02 11:37:44;;;;;;;8.70;6.05;;;27.20;99.50;;;;;;5050930;28;20124;-69
2022/08/02 11:40:14;;;;;;;8.73;7.20;;;27.10;99.90;;;;;;5033911;28;20048;-70
2022/08/02 11:42:46;;;;;;;8.43;5.50;;;27.00;99.90;;;;;;5050543;28;20106;-69
2022/08/02 11:45:15;;;;;;;10.52;6.15;;;27.00;99.90;;;;;;5051045;28;20045;-70
2022/08/02 11:47:53;;;;;;;7.75;6.53;;;26.90;99.90;;;;;;5051694;28;20043;-70
2022/08/02 11:50:23;;;;;;;7.45;5.03;;;27.00;99.90;;;;;;5050449;28;20048;-69
2022/08/02 11:52:52;;;;;;;7.57;4.60;;;27.10;99.90;;;;;;5051798;28;20547;-71
2022/08/02 11:55:26;;;;;;;7.80;4.70;;;27.20;99.90;;;;;;5051927;28;20433;-71
2022/08/02 11:57:59;;;;;;;5.57;4.28;;;27.20;99.80;;;;;;5052130;28;20486;-71
2022/08/02 12:00:25;;;;;;;7.82;4.93;;;27.30;99.90;;;;;;5033983;28;20406;-70
2022/08/02 12:02:51;;;;;;;8.45;5.63;;;27.60;99.90;;;;;;5049015;28;20049;-70
2022/08/02 12:05:19;;;;;;;6.85;5.75;;;27.80;99.90;;;;;;5054292;28;20057;-70
2022/08/02 12:07:46;;;;;;;7.85;5.28;;;27.90;99.90;;;;;;5054372;28;20052;-69
2022/08/02 12:10:20;;;;;;;6.70;5.50;;;27.80;99.90;;;;;;5054542;28;20090;-70
2022/08/02 12:12:55;;;;;;;7.50;5.00;;;27.60;99.40;;;;;;5054324;28;20037;-69
2022/08/02 12:15:36;;;;;;;7.38;5.45;;;27.30;99.20;;;;;;5054254;28;20048;-69
2022/08/02 12:20:52;;;;;;;12.07;7.30;;;26.70;99.00;;;;;;5074103;28;20048;-69
2022/08/02 12:23:18;;;;;;;10.43;6.88;;;26.30;99.30;;;;;;5073873;28;20044;-69
2022/08/02 12:25:44;;;;;;;11.23;7.28;;;26.10;99.90;;;;;;5073946;28;20123;-69
2022/08/02 12:28:22;;;;;;;11.25;6.88;;;25.90;99.90;;;;;;5064189;28;20041;-70
2022/08/02 12:31:13;;;;;;;11.13;7.88;;;25.80;99.90;;;;;;5055209;28;20037;-71
2022/08/02 12:33:51;;;;;;;10.52;8.65;;;25.70;99.90;;;;;;5074493;28;20098;-69
2022/08/02 12:36:22;;;;;;;11.13;9.32;;;25.60;99.90;;;;;;5075147;28;20040;-69
2022/08/02 12:38:51;;;;;;;12.30;9.32;;;25.50;99.90;;;;;;5074016;28;20525;-69
2022/08/02 12:41:17;;;;;;;14.68;10.52;;;25.50;99.90;;;;;;5073353;28;20036;-69
2022/08/02 12:43:43;;;;;;;12.40;10.02;;;25.60;99.90;;;;;;5074467;28;20528;-68
2022/08/02 12:46:18;;;;;;;15.77;10.90;;;25.60;99.90;;;;;;5056264;28;20087;-69
2022/08/02 12:48:44;;;;;;;15.57;11.75;;;25.60;99.90;;;;;;5074281;28;20503;-69
2022/08/02 12:51:27;;;;;;;14.00;11.02;;;25.60;99.90;;;;;;5073204;28;20162;-69
2022/08/02 12:53:56;;;;;;;14.73;10.63;;;25.70;99.90;;;;;;5071791;28;20044;-69
2022/08/02 12:56:27;;;;;;;13.00;10.68;;;25.70;99.90;;;;;;5074311;28;20040;-69
2022/08/02 12:58:53;;;;;;;13.25;10.35;;;25.70;99.90;;;;;;5073877;28;20504;-69
2022/08/02 13:01:21;;;;;;;12.57;10.15;;;25.80;99.90;;;;;;5071847;28;20033;-70
2022/08/02 13:03:47;;;;;;;12.90;10.05;;;25.80;99.90;;;;;;5071103;28;20044;-71